Time;durP1;ratioP1;P1;durP2;ratioP2;P2;SDS_P1;SDS_P2;PMS_P1;PMS_P2;Temp;Humidity;BMP_temperature;BMP_pressure;BME280_temperature;BME280_humidity;BME280_pressure;Samples;Min_cycle;Max_cycle;Signal;HPM_P1;HPM_P2
2020/12/27 00:01:38;;;;;;;17.12;11.10;;;;;;;3.46;68.69;101240.67;1713422;81;21261;-56
2020/12/27 00:04:48;;;;;;;16.20;11.05;;;;;;;3.34;68.85;101241.56;1715149;82;21349;-56
2020/12/27 00:07:53;;;;;;;15.78;10.78;;;;;;;3.23;69.02;101250.93;1699167;84;21393;-56
2020/12/27 00:10:59;;;;;;;17.25;11.12;;;;;;;3.11;69.21;101249.06;1717458;81;21777;-56
2020/12/27 00:14:04;;;;;;;15.83;10.88;;;;;;;2.98;69.39;101248.22;1698226;84;21247;-56
2020/12/27 00:17:13;;;;;;;15.63;11.65;;;;;;;2.89;69.61;101255.59;1715754;82;21387;-57
2020/12/27 00:20:19;;;;;;;19.07;12.00;;;;;;;2.78;69.85;101252.77;1698211;84;21397;-57
2020/12/27 00:23:26;;;;;;;18.52;12.68;;;;;;;2.67;70.09;101259.39;1720974;82;21914;-57
2020/12/27 00:26:32;;;;;;;19.50;13.48;;;;;;;2.56;70.31;101258.78;1698421;84;21365;-55
2020/12/27 00:29:38;;;;;;;16.00;11.45;;;;;;;2.48;70.54;101268.36;1715765;82;21414;-56
2020/12/27 00:32:44;;;;;;;18.82;12.90;;;;;;;2.39;70.76;101267.64;1698704;84;21242;-57
2020/12/27 00:35:49;;;;;;;19.95;13.72;;;;;;;2.30;70.95;101269.61;1718535;82;21331;-57
2020/12/27 00:38:55;;;;;;;19.62;13.25;;;;;;;2.22;71.00;101269.25;1714550;83;21383;-57
2020/12/27 00:42:03;;;;;;;20.75;13.72;;;;;;;2.15;71.18;101274.66;1716854;82;21399;-55
2020/12/27 00:45:10;;;;;;;20.30;12.73;;;;;;;2.06;71.37;101272.57;1697983;84;21219;-55
2020/12/27 00:48:15;;;;;;;20.05;12.90;;;;;;;1.95;71.24;101268.35;1715860;82;21868;-55
2020/12/27 00:51:30;;;;;;;21.90;14.03;;;;;;;1.89;71.38;101272.81;1698102;84;21223;-56
2020/12/27 00:54:37;;;;;;;33.35;19.05;;;;;;;1.87;71.76;101272.03;1714849;82;21201;-56
2020/12/27 00:57:43;;;;;;;24.20;14.83;;;;;;;1.87;72.08;101265.28;1698381;84;21377;-55
2020/12/27 01:00:49;;;;;;;22.77;15.53;;;;;;;1.86;72.32;101267.58;1722398;79;21406;-56
2020/12/27 01:03:54;;;;;;;23.65;15.13;;;;;;;1.87;72.52;101274.23;1728786;83;21262;-56
2020/12/27 01:07:05;;;;;;;20.68;13.85;;;;;;;1.88;72.61;101271.05;1739359;82;21236;-55
2020/12/27 01:10:12;;;;;;;20.00;13.00;;;;;;;1.90;72.63;101271.83;1728299;83;21214;-58
2020/12/27 01:13:18;;;;;;;19.77;12.93;;;;;;;1.91;72.54;101273.55;1742339;80;21375;-56
2020/12/27 01:16:24;;;;;;;19.48;12.75;;;;;;;1.89;72.47;101276.86;1728849;82;21251;-56
2020/12/27 01:19:30;;;;;;;19.40;12.63;;;;;;;1.83;72.40;101283.98;1728289;83;21265;-56
2020/12/27 01:22:41;;;;;;;22.27;13.20;;;;;;;1.74;72.46;101281.88;1728011;83;21343;-55
2020/12/27 01:25:48;;;;;;;;;;;;;;;1.66;72.47;101273.41;1715184;83;21357;-54
2020/12/27 01:28:53;;;;;;;21.17;12.05;;;;;;;1.62;72.53;101279.47;1711403;83;20641;-55
2020/12/27 01:32:05;;;;;;;18.05;12.73;;;;;;;1.59;72.56;101281.52;1742390;82;21373;-54
2020/12/27 01:35:10;;;;;;;18.92;12.20;;;;;;;1.56;72.54;101283.91;1728317;82;21258;-55
2020/12/27 01:38:15;;;;;;;20.37;13.00;;;;;;;1.53;72.55;101284.11;1742542;80;21414;-55
2020/12/27 01:41:21;;;;;;;18.12;12.55;;;;;;;1.50;72.46;101278.44;1728603;82;21208;-56
2020/12/27 01:44:26;;;;;;;20.12;13.78;;;;;;;1.48;72.40;101279.00;1742162;80;21366;-55
2020/12/27 01:47:34;;;;;;;20.45;14.00;;;;;;;1.46;72.34;101282.75;1729347;82;21416;-55
2020/12/27 01:50:40;;;;;;;17.57;11.88;;;;;;;1.45;72.30;101281.02;1742036;81;21743;-55
2020/12/27 01:53:48;;;;;;;19.48;12.35;;;;;;;1.44;72.16;101289.59;1728568;82;21349;-56
2020/12/27 01:56:57;;;;;;;17.00;11.73;;;;;;;1.43;72.05;101295.95;1718300;82;21222;-55
2020/12/27 02:00:05;;;;;;;16.57;11.15;;;;;;;1.41;72.01;101303.27;1740889;82;21240;-55
2020/12/27 02:03:13;;;;;;;17.27;11.80;;;;;;;1.42;71.95;101305.02;1727140;82;21496;-56
2020/12/27 02:06:21;;;;;;;17.92;11.57;;;;;;;1.44;71.83;101312.52;1743310;81;21347;-57
2020/12/27 02:09:32;;;;;;;17.45;11.43;;;;;;;1.47;71.72;101313.67;1729214;82;21388;-56
2020/12/27 02:12:37;;;;;;;17.10;10.85;;;;;;;1.55;71.53;101311.87;1744459;80;21382;-56
2020/12/27 02:15:42;;;;;;;17.27;11.35;;;;;;;1.61;71.26;101312.83;1762278;81;21346;-56
2020/12/27 02:18:52;;;;;;;17.55;11.57;;;;;;;1.66;70.98;101320.16;1700884;83;21230;-55
2020/12/27 02:21:57;;;;;;;17.05;10.75;;;;;;;1.72;70.72;101321.58;1728650;82;21225;-54
2020/12/27 02:25:23;;;;;;;23.62;14.07;;;;;;;1.74;70.43;101319.66;1741688;82;21551;-55
2020/12/27 02:28:30;;;;;;;30.85;17.00;;;;;;;1.79;70.31;101333.27;1728827;82;21247;-55
2020/12/27 02:31:37;;;;;;;27.22;15.68;;;;;;;1.86;70.10;101333.24;1742654;81;21350;-55
2020/12/27 02:34:42;;;;;;;23.75;13.90;;;;;;;1.92;69.91;101332.84;1729204;82;21236;-54
2020/12/27 02:37:50;;;;;;;22.50;13.58;;;;;;;1.97;69.80;101333.89;1741558;80;21232;-56
2020/12/27 02:40:55;;;;;;;22.40;13.38;;;;;;;2.02;69.61;101344.80;1762212;81;21356;-56
2020/12/27 02:44:04;;;;;;;23.10;14.07;;;;;;;2.06;69.46;101348.18;1725409;83;21374;-56
2020/12/27 02:47:24;;;;;;;21.20;13.18;;;;;;;2.12;69.31;101350.48;1727882;83;21255;-55
2020/12/27 02:50:41;;;;;;;27.30;16.32;;;;;;;2.13;69.16;101346.33;1743014;81;21742;-56
2020/12/27 02:53:51;;;;;;;42.70;24.50;;;;;;;2.15;69.00;101349.80;1729345;82;21365;-55
2020/12/27 02:56:59;;;;;;;27.62;16.75;;;;;;;2.15;68.90;101354.33;1742096;81;21209;-55
2020/12/27 03:00:04;;;;;;;29.30;18.55;;;;;;;2.14;68.85;101353.95;1729208;82;21376;-55
2020/12/27 03:03:28;;;;;;;47.25;29.85;;;;;;;2.15;68.80;101358.38;1740294;80;21375;-56
2020/12/27 03:06:38;;;;;;;43.80;25.30;;;;;;;2.17;68.75;101367.26;1733923;83;21190;-55
2020/12/27 03:09:51;;;;;;;;;;;;;;;2.19;68.64;101369.39;1719976;82;21367;-55
2020/12/27 03:12:57;;;;;;;21.87;14.18;;;;;;;2.20;68.58;101373.81;1742366;81;20274;-56
2020/12/27 03:16:03;;;;;;;19.12;12.93;;;;;;;2.19;68.54;101373.44;1741666;82;21346;-55
2020/12/27 03:19:19;;;;;;;18.82;12.80;;;;;;;2.20;68.48;101384.61;1741292;81;21320;-55
2020/12/27 03:22:26;;;;;;;24.92;12.40;;;;;;;2.17;68.48;101382.11;1741571;81;21363;-55
2020/12/27 03:25:34;;;;;;;20.82;13.25;;;;;;;2.12;68.57;101385.59;1742223;81;21197;-55
2020/12/27 03:28:39;;;;;;;23.22;14.23;;;;;;;2.08;68.67;101387.61;1742511;80;21378;-55
2020/12/27 03:31:45;;;;;;;25.65;14.83;;;;;;;2.04;68.66;101397.36;1743209;82;21335;-55
2020/12/27 03:34:51;;;;;;;18.52;11.80;;;;;;;1.97;68.74;101400.05;1741532;82;21358;-55
2020/12/27 03:37:58;;;;;;;16.05;11.85;;;;;;;1.95;68.83;101406.05;1741596;81;21227;-56
2020/12/27 03:41:05;;;;;;;18.50;11.18;;;;;;;1.93;68.87;101400.75;1735834;82;21228;-55
2020/12/27 03:44:13;;;;;;;20.23;12.93;;;;;;;1.95;68.81;101407.39;1741965;81;21357;-55
2020/12/27 03:47:36;;;;;;;18.77;12.30;;;;;;;1.95;68.82;101402.84;1741771;81;21397;-55
2020/12/27 03:50:44;;;;;;;25.35;13.53;;;;;;;1.94;68.78;101417.79;1743464;81;21351;-54
2020/12/27 03:53:51;;;;;;;20.08;12.73;;;;;;;1.92;68.82;101421.09;1742032;80;21433;-56
2020/12/27 03:57:14;;;;;;;19.52;12.37;;;;;;;1.92;68.82;101428.69;1742629;81;21193;-57
2020/12/27 04:00:24;;;;;;;18.45;12.37;;;;;;;1.95;68.85;101438.44;1743025;81;21426;-55
2020/12/27 04:03:32;;;;;;;19.87;12.78;;;;;;;1.94;68.80;101445.67;1740974;80;21355;-55
2020/12/27 04:06:39;;;;;;;21.05;14.07;;;;;;;1.92;68.73;101444.04;1742446;81;21237;-57
2020/12/27 04:09:50;;;;;;;33.85;18.30;;;;;;;1.86;68.76;101445.27;1741909;82;21385;-56
2020/12/27 04:12:56;;;;;;;61.37;27.48;;;;;;;1.82;68.78;101453.66;1742034;80;21370;-56
2020/12/27 04:16:01;;;;;;;36.93;17.52;;;;;;;1.77;68.82;101459.34;1753863;81;21359;-56
2020/12/27 04:19:06;;;;;;;20.17;12.98;;;;;;;1.72;68.85;101453.82;1742115;80;21683;-56
2020/12/27 04:22:19;;;;;;;24.32;14.65;;;;;;;1.63;68.94;101459.79;1741975;80;21256;-55
2020/12/27 04:25:28;;;;;;;23.67;14.28;;;;;;;1.57;69.07;101472.31;1742040;82;21930;-56
2020/12/27 04:28:34;;;;;;;26.75;14.47;;;;;;;1.50;69.13;101474.50;1741731;80;21365;-56
2020/12/27 04:31:41;;;;;;;29.18;15.85;;;;;;;1.45;69.20;101481.53;1742080;82;21339;-56
2020/12/27 04:35:04;;;;;;;28.62;16.25;;;;;;;1.38;69.20;101490.05;1736663;82;21592;-55
2020/12/27 04:38:12;;;;;;;23.02;12.70;;;;;;;1.29;69.18;101503.63;1742038;80;21363;-55
2020/12/27 04:41:23;;;;;;;22.90;11.97;;;;;;;1.21;69.33;101508.59;1741938;82;21343;-55
2020/12/27 04:44:30;;;;;;;19.00;12.35;;;;;;;1.21;69.62;101512.64;1742269;80;21402;-55
2020/12/27 04:47:38;;;;;;;19.50;12.53;;;;;;;1.18;69.69;101523.61;1742285;80;21864;-55
2020/12/27 04:50:46;;;;;;;17.25;12.18;;;;;;;1.14;69.73;101526.07;1743529;81;21446;-55
2020/12/27 04:53:51;;;;;;;22.07;13.55;;;;;;;1.13;69.87;101527.04;1742597;80;21422;-55
2020/12/27 04:57:03;;;;;;;35.13;19.23;;;;;;;1.14;69.99;101528.77;1741923;82;21335;-55
2020/12/27 05:00:13;;;;;;;48.10;20.48;;;;;;;1.17;70.15;101533.98;1742247;82;21340;-54
2020/12/27 05:03:37;;;;;;;61.33;24.57;;;;;;;1.22;70.21;101544.03;1742040;80;21438;-56
2020/12/27 05:06:45;;;;;;;66.90;27.60;;;;;;;1.27;70.16;101547.34;1739360;80;21366;-54
2020/12/27 05:09:52;;;;;;;73.78;31.70;;;;;;;1.31;70.05;101552.08;1738507;82;21253;-55
2020/12/27 05:13:03;;;;;;;64.00;29.25;;;;;;;1.33;69.95;101548.31;1737522;81;21209;-55
2020/12/27 05:16:13;;;;;;;56.05;27.32;;;;;;;1.36;69.82;101544.59;1736358;82;21847;-55
2020/12/27 05:19:21;;;;;;;76.12;39.70;;;;;;;1.39;69.69;101544.41;1719730;83;21383;-55
2020/12/27 05:22:26;;;;;;;147.30;76.00;;;;;;;1.41;69.59;101545.20;1727928;82;21414;-55
2020/12/27 05:25:33;;;;;;;178.72;93.17;;;;;;;1.44;69.42;101544.52;1708619;82;21435;-55
2020/12/27 05:28:45;;;;;;;87.85;44.70;;;;;;;1.45;69.35;101542.23;1766542;81;21201;-55
2020/12/27 05:32:07;;;;;;;28.32;17.82;;;;;;;1.42;69.24;101543.77;1699574;84;21467;-55
2020/12/27 05:35:33;;;;;;;24.18;15.98;;;;;;;1.38;69.16;101552.97;1708294;83;21216;-55
2020/12/27 05:38:39;;;;;;;21.27;14.73;;;;;;;1.27;69.14;101550.50;1699019;84;21724;-55
2020/12/27 05:42:13;;;;;;;32.55;18.50;;;;;;;1.18;69.15;101561.36;1700858;81;21340;-54
2020/12/27 05:45:26;;;;;;;33.13;16.73;;;;;;;1.10;69.32;101566.31;1708007;83;21587;-56
2020/12/27 05:48:30;;;;;;;22.45;15.65;;;;;;;1.02;69.38;101575.78;1699254;84;21442;-56
2020/12/27 05:51:36;;;;;;;25.97;15.68;;;;;;;0.95;69.39;101582.49;1699081;84;21461;-56
2020/12/27 05:54:42;;;;;;;22.52;15.08;;;;;;;0.90;69.44;101582.75;1699613;84;21205;-56
2020/12/27 05:57:49;;;;;;;29.15;19.40;;;;;;;0.84;69.40;101577.68;1708095;84;21224;-55
2020/12/27 06:01:00;;;;;;;29.00;19.55;;;;;;;0.81;69.68;101579.70;1700023;84;21273;-55
2020/12/27 06:04:09;;;;;;;29.98;19.35;;;;;;;0.76;69.57;101597.94;1699832;84;21252;-56
2020/12/27 06:07:15;;;;;;;27.52;17.65;;;;;;;0.67;69.41;101596.61;1714143;82;21355;-56
2020/12/27 06:10:28;;;;;;;28.83;17.48;;;;;;;0.64;69.42;101608.91;1724718;83;21338;-54
2020/12/27 06:14:24;;;;;;;34.88;21.55;;;;;;;0.60;69.51;101607.81;1724823;83;21229;-56
2020/12/27 06:18:00;;;;;;;;;;;;;;;0.55;69.32;101622.88;1727358;83;21375;-56
2020/12/27 06:21:19;;;;;;;46.10;26.10;;;;;;;0.52;69.36;101632.94;1732334;82;20250;-55
2020/12/27 06:24:25;;;;;;;36.23;22.25;;;;;;;0.49;69.46;101631.76;1723777;83;21906;-55
2020/12/27 06:27:30;;;;;;;68.47;38.15;;;;;;;0.47;69.65;101639.92;1724674;83;21430;-55
2020/12/27 06:30:44;;;;;;;35.98;23.18;;;;;;;0.52;69.95;101640.55;1724702;83;21261;-55
2020/12/27 06:34:02;;;;;;;40.48;26.12;;;;;;;0.61;70.16;101643.22;1724468;83;21390;-55
2020/12/27 06:37:16;;;;;;;45.58;28.32;;;;;;;0.69;70.17;101644.55;1724780;83;21351;-56
2020/12/27 06:40:41;;;;;;;35.50;23.22;;;;;;;0.77;70.12;101652.22;1724224;83;21394;-56
2020/12/27 06:43:53;;;;;;;25.70;17.65;;;;;;;0.82;70.05;101656.89;1722708;83;21407;-56
2020/12/27 06:47:02;;;;;;;30.00;19.15;;;;;;;0.86;70.05;101662.02;1724586;83;21856;-55
2020/12/27 06:50:25;;;;;;;32.15;21.70;;;;;;;0.91;69.96;101659.95;1721247;83;21386;-55
2020/12/27 06:53:51;;;;;;;39.85;24.87;;;;;;;0.92;69.89;101649.55;1736449;82;21425;-55
2020/12/27 06:56:59;;;;;;;50.70;29.63;;;;;;;0.96;69.95;101653.84;1741551;82;21434;-55
2020/12/27 07:00:26;;;;;;;73.37;39.67;;;;;;;1.02;69.95;101660.23;1725342;83;21355;-54
2020/12/27 07:03:44;;;;;;;53.40;31.05;;;;;;;1.08;69.92;101679.23;1729199;82;21623;-54
2020/12/27 07:06:51;;;;;;;40.15;27.58;;;;;;;1.12;70.00;101685.75;1735503;82;21421;-56
2020/12/27 07:09:57;;;;;;;32.95;21.17;;;;;;;1.18;70.04;101685.41;1731160;83;21690;-56
2020/12/27 07:13:14;;;;;;;27.02;16.80;;;;;;;1.26;70.04;101693.95;1721279;82;21228;-55
2020/12/27 07:16:21;;;;;;;28.65;16.97;;;;;;;1.30;69.92;101698.20;1761617;81;21370;-56
2020/12/27 07:19:26;;;;;;;23.77;16.37;;;;;;;1.32;69.90;101698.99;1743831;82;21232;-55
2020/12/27 07:22:31;;;;;;;32.58;19.75;;;;;;;1.35;69.95;101694.77;1761893;81;21967;-56
2020/12/27 07:25:37;;;;;;;25.27;17.10;;;;;;;1.38;69.88;101704.04;1723664;82;21761;-56
2020/12/27 07:28:43;;;;;;;27.77;17.77;;;;;;;1.43;69.83;101709.17;1762044;81;21205;-56
2020/12/27 07:31:50;;;;;;;28.38;17.80;;;;;;;1.46;69.79;101709.88;1706181;82;21244;-55
2020/12/27 07:34:57;;;;;;;28.52;17.73;;;;;;;1.47;69.77;101710.26;1707867;82;21343;-56
2020/12/27 07:38:09;;;;;;;29.37;17.32;;;;;;;1.52;69.81;101731.11;1762387;81;21212;-55
2020/12/27 07:41:15;;;;;;;28.85;17.05;;;;;;;1.59;69.80;101732.99;1743124;82;21362;-55
2020/12/27 07:44:27;;;;;;;26.42;17.52;;;;;;;1.68;69.78;101741.06;1762096;81;21221;-55
2020/12/27 07:47:32;;;;;;;28.98;17.95;;;;;;;1.71;69.71;101739.53;1743333;82;21244;-55
2020/12/27 07:50:37;;;;;;;26.27;17.02;;;;;;;1.78;69.72;101744.96;1762444;81;21185;-55
2020/12/27 07:53:43;;;;;;;28.57;18.12;;;;;;;1.84;69.73;101746.84;1744575;82;21373;-55
2020/12/27 07:56:50;;;;;;;28.55;16.57;;;;;;;1.93;69.76;101749.50;1762205;81;21201;-55
2020/12/27 08:00:13;;;;;;;24.70;17.50;;;;;;;2.01;69.73;101752.17;1743463;82;21197;-55
2020/12/27 08:03:18;;;;;;;30.43;17.62;;;;;;;2.10;69.68;101749.39;1752392;81;21351;-55
2020/12/27 08:06:26;;;;;;;25.77;16.65;;;;;;;2.17;69.58;101755.69;1730238;83;21233;-55
2020/12/27 08:09:30;;;;;;;24.70;16.10;;;;;;;2.24;69.50;101761.61;1713344;83;21753;-55
2020/12/27 08:12:35;;;;;;;27.05;16.77;;;;;;;2.31;69.43;101761.66;1719655;82;21214;-55
2020/12/27 08:15:46;;;;;;;27.45;17.65;;;;;;;2.39;69.27;101768.84;1724617;82;21706;-55
2020/12/27 08:18:51;;;;;;;25.45;15.43;;;;;;;2.45;69.13;101776.11;1724419;83;21611;-56
2020/12/27 08:21:57;;;;;;;25.12;16.37;;;;;;;2.50;69.01;101781.23;1725079;82;21347;-55
2020/12/27 08:25:04;;;;;;;23.20;14.73;;;;;;;2.56;68.98;101775.46;1724645;83;21749;-56
2020/12/27 08:28:10;;;;;;;24.47;15.85;;;;;;;2.62;68.88;101778.67;1708582;83;21233;-56
2020/12/27 08:31:15;;;;;;;24.90;15.75;;;;;;;2.66;68.83;101780.22;1725803;80;21277;-56
2020/12/27 08:34:25;;;;;;;23.77;15.55;;;;;;;2.74;68.64;101779.78;1725125;83;21252;-56
2020/12/27 08:37:32;;;;;;;19.20;13.68;;;;;;;2.78;68.51;101775.91;1725344;82;21292;-56
2020/12/27 08:40:37;;;;;;;21.37;13.60;;;;;;;2.83;68.43;101780.57;1716210;81;21268;-55
2020/12/27 08:43:50;;;;;;;28.15;17.82;;;;;;;2.86;68.39;101774.97;1684824;83;21254;-55
2020/12/27 08:46:55;;;;;;;28.60;18.42;;;;;;;2.89;68.12;101781.55;1695281;84;21726;-56
2020/12/27 08:50:20;;;;;;;24.47;15.78;;;;;;;2.89;68.04;101776.14;1695747;84;21738;-55
2020/12/27 08:53:25;;;;;;;24.47;14.95;;;;;;;2.90;67.91;101770.63;1695799;84;21770;-56
2020/12/27 08:56:31;;;;;;;27.07;15.93;;;;;;;2.94;67.79;101777.61;1696081;84;21809;-56
2020/12/27 08:59:38;;;;;;;19.85;13.20;;;;;;;2.96;67.40;101778.87;1695987;84;21742;-56
2020/12/27 09:02:43;;;;;;;17.02;12.37;;;;;;;2.96;67.13;101772.98;1696132;84;21777;-56
2020/12/27 09:05:49;;;;;;;19.55;12.75;;;;;;;2.97;66.95;101772.48;1715081;83;21225;-56
2020/12/27 09:09:06;;;;;;;20.70;13.48;;;;;;;2.98;66.91;101771.54;1723641;82;21214;-56
2020/12/27 09:12:19;;;;;;;18.35;11.95;;;;;;;2.98;66.79;101776.45;1707387;83;21232;-55
2020/12/27 09:15:47;;;;;;;19.92;12.58;;;;;;;2.97;66.64;101781.48;1769218;81;21234;-57
2020/12/27 09:18:54;;;;;;;22.75;15.40;;;;;;;2.99;66.58;101789.50;1704510;83;21260;-56
2020/12/27 09:21:59;;;;;;;20.35;14.15;;;;;;;2.98;66.64;101787.77;1719045;82;21879;-56
2020/12/27 09:25:12;;;;;;;18.67;12.07;;;;;;;3.01;66.64;101794.34;1714908;82;21221;-55
2020/12/27 09:28:29;;;;;;;20.35;13.15;;;;;;;3.01;66.48;101797.05;1748712;81;21758;-56
2020/12/27 09:31:34;;;;;;;20.15;14.05;;;;;;;3.02;66.51;101789.30;1751169;82;21220;-54
2020/12/27 09:34:40;;;;;;;19.40;12.05;;;;;;;3.05;66.67;101794.53;1751084;82;22184;-56
2020/12/27 09:37:48;;;;;;;21.02;13.95;;;;;;;3.09;66.63;101794.75;1712417;83;21228;-56
2020/12/27 09:40:55;;;;;;;18.23;12.73;;;;;;;3.14;66.48;101802.07;1711705;83;21717;-55
2020/12/27 09:44:03;;;;;;;19.30;12.43;;;;;;;3.16;66.42;101796.56;1726049;82;21228;-56
2020/12/27 09:47:08;;;;;;;18.40;12.70;;;;;;;3.18;66.46;101806.81;1728008;81;21706;-55
2020/12/27 09:50:16;;;;;;;17.52;12.88;;;;;;;3.20;66.54;101808.95;1728794;82;21565;-55
2020/12/27 09:53:24;;;;;;;18.80;13.20;;;;;;;3.22;66.46;101813.80;1750033;82;21211;-56
2020/12/27 09:56:29;;;;;;;18.05;12.82;;;;;;;3.23;66.45;101819.59;1750392;82;21693;-56
2020/12/27 09:59:35;;;;;;;25.23;15.38;;;;;;;3.25;66.48;101827.14;1750366;82;21358;-56
2020/12/27 10:02:40;;;;;;;22.17;14.35;;;;;;;3.31;66.72;101822.22;1750989;82;21875;-57
2020/12/27 10:05:45;;;;;;;19.92;13.68;;;;;;;3.40;66.70;101816.70;1750955;82;21191;-55
2020/12/27 10:08:51;;;;;;;19.35;13.00;;;;;;;3.49;66.70;101818.35;1751735;82;21855;-56
2020/12/27 10:11:56;;;;;;;20.72;14.43;;;;;;;3.58;66.63;101823.69;1752290;80;21783;-57
2020/12/27 10:15:04;;;;;;;63.87;33.45;;;;;;;3.68;66.51;101818.09;1756195;81;21195;-56
2020/12/27 10:18:10;;;;;;;26.82;16.27;;;;;;;3.75;66.40;101808.11;1699677;83;21375;-56
2020/12/27 10:21:16;;;;;;;25.88;14.98;;;;;;;3.81;66.13;101817.20;1699584;84;21398;-56
2020/12/27 10:24:31;;;;;;;20.10;13.03;;;;;;;3.84;65.80;101813.41;1698913;84;21928;-55
2020/12/27 10:27:32;;;;;;;17.45;12.78;;;;;;;3.83;65.53;101810.33;1698837;84;21398;-55
2020/12/27 10:30:37;;;;;;;26.05;15.78;;;;;;;3.82;65.19;101813.51;1698926;84;21425;-55
2020/12/27 10:33:43;;;;;;;20.32;13.60;;;;;;;3.79;65.14;101810.15;1725690;80;21730;-54
2020/12/27 10:36:54;;;;;;;17.45;12.43;;;;;;;3.86;65.29;101812.83;1724087;83;21201;-54
2020/12/27 10:39:58;;;;;;;20.70;12.73;;;;;;;3.90;65.17;101803.05;1724791;83;21845;-55
2020/12/27 10:43:04;;;;;;;18.77;13.88;;;;;;;3.94;65.17;101805.97;1769272;80;21340;-56
2020/12/27 10:46:12;;;;;;;18.80;13.30;;;;;;;3.98;65.01;101811.55;1756991;81;21184;-55
2020/12/27 10:49:19;;;;;;;19.75;14.18;;;;;;;4.01;64.85;101799.16;1771496;81;21781;-56
2020/12/27 10:52:24;;;;;;;19.75;12.15;;;;;;;4.04;64.66;101789.48;1771404;80;21328;-56
2020/12/27 10:55:30;;;;;;;19.57;11.90;;;;;;;4.06;64.63;101788.90;1771382;80;21331;-55
2020/12/27 10:58:36;;;;;;;17.48;12.10;;;;;;;4.05;64.54;101785.82;1768506;80;21462;-55
2020/12/27 11:01:43;;;;;;;22.17;13.15;;;;;;;4.04;64.55;101781.34;1771416;81;21389;-56
2020/12/27 11:04:48;;;;;;;20.12;13.28;;;;;;;4.10;64.67;101783.69;1769177;80;21730;-56
2020/12/27 11:07:55;;;;;;;19.95;13.32;;;;;;;4.17;64.59;101783.64;1777120;80;21822;-56
2020/12/27 11:11:01;;;;;;;23.73;14.98;;;;;;;4.22;64.48;101786.93;1751792;80;21863;-56
2020/12/27 11:14:07;;;;;;;14.78;10.90;;;;;;;4.29;64.61;101782.86;1742459;79;21346;-56
2020/12/27 11:17:12;;;;;;;21.00;11.65;;;;;;;4.37;64.30;101783.69;1752026;81;21361;-56
2020/12/27 11:20:16;;;;;;;18.27;12.53;;;;;;;4.40;64.29;101791.14;1751103;82;21718;-57
2020/12/27 11:23:23;;;;;;;17.27;11.65;;;;;;;4.46;64.28;101811.53;1751270;82;21338;-57
2020/12/27 11:26:27;;;;;;;18.80;12.78;;;;;;;4.49;64.11;101809.50;1751330;82;21982;-57
2020/12/27 11:29:33;;;;;;;16.55;11.88;;;;;;;4.51;63.92;101810.27;1751093;81;21399;-57
2020/12/27 11:32:37;;;;;;;16.95;11.95;;;;;;;4.53;63.90;101802.03;1728766;82;21193;-57
2020/12/27 11:35:42;;;;;;;18.85;11.53;;;;;;;4.52;63.68;101806.58;1730898;82;21376;-57
2020/12/27 11:38:47;;;;;;;29.30;18.45;;;;;;;4.51;63.52;101803.49;1726198;83;21767;-57
2020/12/27 11:41:55;;;;;;;19.67;13.93;;;;;;;4.54;63.55;101808.70;1725970;83;21925;-57
2020/12/27 11:45:02;;;;;;;17.82;13.08;;;;;;;4.55;63.47;101809.59;1722717;81;21195;-57
2020/12/27 11:48:08;;;;;;;18.92;11.48;;;;;;;4.58;63.43;101812.09;1726076;81;21555;-57
2020/12/27 11:51:12;;;;;;;17.32;11.88;;;;;;;4.61;63.36;101807.81;1712132;83;21191;-57
2020/12/27 11:54:19;;;;;;;18.73;13.28;;;;;;;4.63;63.35;101803.64;1725424;80;21550;-56
2020/12/27 11:57:25;;;;;;;16.27;11.55;;;;;;;4.70;63.26;101811.73;1708066;83;21260;-56
2020/12/27 12:00:32;;;;;;;16.70;12.40;;;;;;;4.74;63.18;101807.85;1709917;83;21185;-56
2020/12/27 12:03:37;;;;;;;16.25;11.25;;;;;;;4.78;63.04;101799.87;1719136;82;21340;-57
2020/12/27 12:06:42;;;;;;;16.95;11.83;;;;;;;4.81;62.67;101810.52;1699226;84;21756;-56
2020/12/27 12:09:48;;;;;;;16.90;12.47;;;;;;;4.80;62.66;101811.50;1723860;83;21230;-56
2020/12/27 12:12:54;;;;;;;22.50;15.10;;;;;;;4.83;62.77;101801.31;1733464;82;21409;-56
2020/12/27 12:15:59;;;;;;;19.77;13.15;;;;;;;4.92;62.74;101805.22;1738723;81;21741;-57
2020/12/27 12:19:05;;;;;;;16.15;11.30;;;;;;;4.96;62.46;101813.55;1731273;81;21231;-57
2020/12/27 12:22:10;;;;;;;17.95;12.47;;;;;;;4.97;62.35;101817.98;1716831;81;21201;-57
2020/12/27 12:25:15;;;;;;;26.33;16.12;;;;;;;5.02;62.29;101819.43;1723091;83;21249;-56
2020/12/27 12:28:20;;;;;;;18.00;12.82;;;;;;;5.09;62.25;101813.09;1723704;83;21201;-56
2020/12/27 12:31:28;;;;;;;19.90;13.20;;;;;;;5.19;62.06;101818.24;1723710;83;21238;-55
2020/12/27 12:34:35;;;;;;;23.95;14.13;;;;;;;5.27;61.79;101811.80;1727047;83;21300;-54
2020/12/27 12:37:41;;;;;;;23.15;14.87;;;;;;;5.31;61.50;101810.63;1727360;83;21386;-56
2020/12/27 12:40:46;;;;;;;23.22;15.18;;;;;;;5.33;61.36;101816.31;1727583;83;21217;-55
2020/12/27 12:43:52;;;;;;;19.07;12.30;;;;;;;5.35;61.13;101817.56;1732534;81;21228;-55
2020/12/27 12:46:57;;;;;;;16.82;12.10;;;;;;;5.35;60.89;101817.56;1749168;82;21692;-56
2020/12/27 12:50:02;;;;;;;17.15;12.07;;;;;;;5.38;60.57;101814.62;1749386;82;21247;-56
2020/12/27 12:53:07;;;;;;;17.42;12.07;;;;;;;5.41;60.41;101815.77;1749190;82;21231;-56
2020/12/27 12:56:17;;;;;;;19.95;13.05;;;;;;;5.38;60.22;101817.34;1731630;81;21379;-55
2020/12/27 12:59:29;;;;;;;27.55;17.48;;;;;;;5.31;60.06;101816.05;1768975;81;21403;-56
2020/12/27 13:02:34;;;;;;;26.57;16.75;;;;;;;5.27;60.12;101816.75;1703488;84;22007;-56
2020/12/27 13:05:40;;;;;;;17.17;12.95;;;;;;;5.23;60.23;101814.36;1720456;81;21957;-57
2020/12/27 13:08:46;;;;;;;19.73;12.35;;;;;;;5.18;60.57;101820.59;1735829;81;21215;-56
2020/12/27 13:11:51;;;;;;;15.35;11.28;;;;;;;5.09;61.09;101826.66;1706950;84;21212;-56
2020/12/27 13:14:56;;;;;;;17.73;13.05;;;;;;;4.95;61.46;101818.61;1754161;80;21772;-56
2020/12/27 13:18:02;;;;;;;18.05;13.30;;;;;;;4.82;61.80;101819.05;1712397;82;21217;-55
2020/12/27 13:21:08;;;;;;;21.33;16.37;;;;;;;4.70;62.15;101821.22;1740376;82;21200;-56
2020/12/27 13:24:13;;;;;;;20.45;15.13;;;;;;;4.59;62.38;101824.19;1726644;82;21212;-57
2020/12/27 13:27:18;;;;;;;20.92;15.25;;;;;;;4.46;62.72;101823.26;1721105;82;21195;-56
2020/12/27 13:30:22;;;;;;;26.77;19.00;;;;;;;4.38;62.94;101817.95;1713959;82;21256;-56
2020/12/27 13:33:28;;;;;;;45.80;26.70;;;;;;;4.22;63.13;101818.57;1729666;82;21199;-56
2020/12/27 13:36:34;;;;;;;45.70;27.90;;;;;;;4.11;63.56;101817.05;1729627;83;21200;-57
2020/12/27 13:39:39;;;;;;;42.58;26.60;;;;;;;4.01;63.85;101814.06;1731228;83;21204;-57
2020/12/27 13:42:43;;;;;;;50.45;27.90;;;;;;;3.91;64.14;101818.36;1737630;82;21752;-56
2020/12/27 13:45:49;;;;;;;50.58;27.35;;;;;;;3.80;64.36;101823.59;1729021;82;21393;-56
2020/12/27 13:48:54;;;;;;;53.13;29.60;;;;;;;3.69;64.60;101824.76;1743894;82;21386;-57
2020/12/27 13:52:07;;;;;;;95.77;48.30;;;;;;;3.57;64.84;101827.38;1729990;83;21200;-57
2020/12/27 13:55:12;;;;;;;113.72;52.45;;;;;;;3.46;65.08;101823.96;1728684;83;21264;-57
2020/12/27 13:58:20;;;;;;;91.55;44.30;;;;;;;3.35;65.42;101818.81;1728322;83;21280;-56
2020/12/27 14:01:25;;;;;;;64.72;35.08;;;;;;;3.25;65.63;101820.37;1727881;83;21382;-57
2020/12/27 14:04:32;;;;;;;39.25;24.37;;;;;;;3.15;65.83;101828.18;1728265;83;21366;-57
2020/12/27 14:07:37;;;;;;;30.27;21.20;;;;;;;3.06;66.03;101834.13;1727340;83;21229;-56
2020/12/27 14:10:43;;;;;;;34.18;21.10;;;;;;;2.97;66.28;101842.34;1772467;80;21208;-56
2020/12/27 14:13:49;;;;;;;45.30;26.70;;;;;;;2.86;66.49;101845.28;1771336;80;21201;-57
2020/12/27 14:16:56;;;;;;;35.63;22.98;;;;;;;2.76;66.72;101853.54;1764573;79;21726;-57
2020/12/27 14:20:01;;;;;;;29.72;19.90;;;;;;;2.67;66.87;101850.03;1746700;82;21196;-56
2020/12/27 14:23:06;;;;;;;28.85;19.02;;;;;;;2.57;67.05;101852.91;1748412;81;21285;-57
2020/12/27 14:26:11;;;;;;;35.45;23.22;;;;;;;2.50;67.33;101855.56;1748898;81;21230;-57